createdAt,value
2019-04-27T00:09:50.325Z,100.0000
2019-04-27T00:20:04.444Z,100.0000
2019-04-27T00:36:23.782Z,100.0000
2019-04-27T00:52:43.622Z,100.0000
2019-04-27T01:00:54.122Z,99.4034
2019-04-27T01:17:14.119Z,98.7320
2019-04-27T01:25:24.601Z,98.8830
2019-04-27T01:49:53.990Z,98.6999
2019-04-27T01:58:04.675Z,98.8312
2019-04-27T02:14:23.814Z,98.3597
2019-04-27T02:30:44.106Z,97.2351
2019-04-27T02:36:52.887Z,97.2061
2019-04-27T03:19:43.420Z,96.1257
2019-04-27T03:27:53.963Z,96.2402
2019-04-27T03:32:04.767Z,96.5530
2019-04-27T03:48:25.917Z,96.6339
2019-04-27T04:02:43.943Z,95.7000
2019-04-27T04:19:03.967Z,95.9945
2019-04-27T04:43:33.314Z,94.9996
2019-04-27T04:53:45.132Z,93.9391
2019-04-27T04:59:54.204Z,94.2122
2019-04-27T05:02:01.839Z,94.7707
2019-04-27T05:36:53.495Z,92.2026
2019-04-27T05:45:03.920Z,91.7403
2019-04-27T05:51:13.489Z,92.7214
2019-04-27T06:21:53.870Z,89.4804
2019-04-27T06:30:05.031Z,88.2078
2019-04-27T06:36:13.843Z,90.5913
2019-04-27T06:46:28.791Z,91.2184
2019-04-27T06:54:40.366Z,91.6533
2019-04-27T06:56:44.690Z,92.0607
2019-04-27T07:02:55.313Z,92.1950
2019-04-27T07:07:01.680Z,90.8614
2019-04-27T07:13:11.285Z,91.7311
2019-04-27T07:15:15.566Z,90.7195
2019-04-27T07:17:19.206Z,92.3003
2019-04-27T07:19:23.237Z,90.7469
2019-04-27T07:27:33.764Z,91.8135
2019-04-27T07:37:48.847Z,91.6594
2019-04-27T07:50:04.170Z,94.3999
2019-04-27T07:54:10.977Z,93.8781
2019-04-27T07:56:15.282Z,94.3969
2019-04-27T08:00:22.004Z,94.5693
2019-04-27T08:02:25.402Z,94.0902
2019-04-27T08:06:31.236Z,94.6380
2019-04-27T08:08:34.698Z,94.8272
2019-04-27T08:10:39.177Z,94.1161
2019-04-27T08:14:46.168Z,93.0770
2019-04-27T08:29:03.696Z,94.3908
2019-04-27T08:45:24.044Z,90.8797
2019-04-27T08:53:34.664Z,90.3456
2019-04-27T08:59:43.445Z,87.5853
2019-04-27T09:16:03.332Z,84.7593
2019-04-27T09:24:14.415Z,84.5594
2019-04-27T09:48:44.460Z,76.6751
2019-04-27T10:17:24.165Z,75.7961
2019-04-27T10:33:45.849Z,70.7698
2019-04-27T11:22:43.744Z,67.7256
2019-04-27T11:30:55.049Z,68.1559
2019-04-27T11:37:03.419Z,69.3080
2019-04-27T11:53:25.997Z,69.7765
2019-04-27T11:59:34.453Z,66.5339
2019-04-27T12:05:42.526Z,63.4806
2019-04-27T12:07:47.848Z,65.6519
2019-04-27T12:11:55.619Z,65.8473
2019-04-27T12:43:45.886Z,74.5083
2019-04-27T12:48:13.296Z,71.7800
2019-04-27T13:09:25.650Z,62.8458
2019-04-27T13:23:45.727Z,61.1460
2019-04-27T13:29:53.942Z,64.9744
2019-04-27T13:36:07.289Z,61.5274
2019-04-27T13:40:13.280Z,61.1109
2019-04-27T13:48:23.769Z,63.1647
2019-04-27T13:56:34.876Z,63.9567
2019-04-27T14:04:46.893Z,68.4215
2019-04-27T14:27:13.898Z,73.1548
2019-04-27T14:35:24.360Z,71.6487
2019-04-27T14:59:54.341Z,78.9502
2019-04-27T15:06:03.912Z,89.2317
2019-04-27T15:08:09.658Z,89.9016
2019-04-27T15:10:16.129Z,91.9341
2019-04-27T15:12:25.195Z,94.9783
2019-04-27T15:14:31.062Z,96.2997
2019-04-27T15:16:37.894Z,95.8099
2019-04-27T15:18:44.564Z,94.6349
2019-04-27T15:20:48.693Z,94.5144
2019-04-27T15:22:56.672Z,94.3358
2019-04-27T15:25:12.894Z,92.6513
2019-04-27T15:27:10.271Z,89.8177
2019-04-27T15:29:14.568Z,90.0435
2019-04-27T15:31:26.347Z,90.9819
2019-04-27T15:33:28.991Z,91.1376
2019-04-27T15:35:35.417Z,89.8039
2019-04-27T15:37:42.185Z,91.6503
2019-04-27T15:39:45.620Z,91.9921
2019-04-27T15:41:49.953Z,91.9753
2019-04-27T15:43:54.052Z,92.2667
2019-04-27T15:45:58.714Z,91.9600
2019-04-27T15:48:03.045Z,92.8222
2019-04-27T15:50:07.919Z,93.2204
2019-04-27T15:52:11.477Z,93.3989
2019-04-27T15:54:15.202Z,94.5144
2019-04-27T15:56:21.561Z,93.2097
2019-04-27T15:58:26.126Z,92.9274
2019-04-27T16:00:30.473Z,93.3028
2019-04-27T16:02:34.838Z,91.7311
2019-04-27T16:04:39.996Z,93.0037
2019-04-27T16:06:48.759Z,93.5317
2019-04-27T16:08:52.206Z,93.8430
2019-04-27T16:10:56.402Z,93.1655
2019-04-27T16:13:06.609Z,92.6848
2019-04-27T16:15:08.507Z,92.2393
2019-04-27T16:17:11.917Z,90.8629
2019-04-27T16:19:15.332Z,92.5368
2019-04-27T16:21:20.072Z,93.6629
2019-04-27T16:23:28.220Z,92.8069
2019-04-27T16:25:45.312Z,92.5689
2019-04-27T16:27:41.743Z,91.4199
2019-04-27T16:29:45.759Z,92.2911
2019-04-27T16:31:49.174Z,91.2551
2019-04-27T16:33:54.114Z,92.1950
2019-04-27T16:36:06.681Z,92.8985
2019-04-27T16:38:10.736Z,92.9870
2019-04-27T16:40:17.616Z,91.8242
2019-04-27T16:42:23.181Z,94.1222
2019-04-27T16:44:27.555Z,92.1111
2019-04-27T16:46:34.803Z,91.2474
2019-04-27T16:48:40.804Z,91.5206
2019-04-27T16:50:44.869Z,89.2683
2019-04-27T16:52:56.547Z,86.8986
2019-04-27T16:54:59.002Z,87.3045
2019-04-27T16:57:05.475Z,83.1022
2019-04-27T16:59:33.965Z,84.7959
2019-04-27T17:01:19.434Z,81.0559
2019-04-27T17:03:23.857Z,77.3358
2019-04-27T17:05:30.922Z,79.9710
2019-04-27T17:07:37.530Z,78.3612
2019-04-27T17:09:46.178Z,79.2950
2019-04-27T17:11:51.796Z,81.7487
2019-04-27T17:13:56.068Z,81.3168
2019-04-27T17:16:00.200Z,81.9120
2019-04-27T17:18:04.244Z,82.7237
2019-04-27T17:20:08.524Z,84.4587
2019-04-27T17:22:14.755Z,82.7405
2019-04-27T17:24:19.638Z,84.0909
2019-04-27T17:26:24.141Z,84.7868
2019-04-27T17:28:28.346Z,83.4882
2019-04-27T17:30:39.828Z,81.2940
2019-04-27T17:32:40.804Z,81.6800
2019-04-27T17:34:44.866Z,82.3804
2019-04-27T17:36:54.499Z,80.7050
2019-04-27T17:38:58.440Z,81.5778
2019-04-27T17:41:04.728Z,81.5702
2019-04-27T17:43:11.157Z,82.7955
2019-04-27T17:45:15.254Z,84.1779
2019-04-27T17:47:20.071Z,85.7618
2019-04-27T17:49:28.099Z,86.9169
2019-04-27T17:51:35.321Z,87.6112
2019-04-27T17:53:40.690Z,87.7638
2019-04-27T17:55:44.723Z,87.5532
2019-04-27T17:57:49.117Z,87.0497
2019-04-27T17:59:59.002Z,85.8213
2019-04-27T18:02:04.617Z,87.2328
2019-04-27T18:04:10.639Z,86.0044
2019-04-27T18:06:14.322Z,86.6651
2019-04-27T18:08:24.595Z,86.6041
2019-04-27T18:10:28.162Z,87.4464
2019-04-27T18:12:32.370Z,87.1824
2019-04-27T18:14:39.454Z,88.0232
2019-04-27T18:16:44.626Z,86.9795
2019-04-27T18:18:48.995Z,85.2735
2019-04-27T18:20:52.572Z,85.9815
2019-04-27T18:22:57.995Z,85.8625
2019-04-27T18:25:06.239Z,87.6982
2019-04-27T18:27:10.957Z,87.0817
2019-04-27T18:29:15.270Z,86.5827
2019-04-27T18:31:18.832Z,86.9337
2019-04-27T18:33:22.993Z,88.2536
2019-04-27T18:35:27.960Z,88.1437
2019-04-27T18:37:33.839Z,88.1071
2019-04-27T18:39:40.821Z,89.6132
2019-04-27T18:41:50.576Z,88.7297
2019-04-27T18:43:55.813Z,88.6198
2019-04-27T18:46:02.373Z,88.4398
2019-04-27T18:48:13.350Z,88.3680
2019-04-27T18:50:17.764Z,89.2912
2019-04-27T18:52:22.215Z,89.7948
2019-04-27T18:54:25.712Z,87.8782
2019-04-27T18:56:33.463Z,88.7663
2019-04-27T18:58:38.956Z,88.2841
2019-04-27T19:00:42.508Z,87.7165
2019-04-27T19:02:49.990Z,87.9652
2019-04-27T19:04:54.485Z,87.4525
2019-04-27T19:06:58.512Z,88.5283
2019-04-27T19:09:04.825Z,88.2109
2019-04-27T19:11:09.278Z,87.9011
2019-04-27T19:13:13.866Z,87.8737
2019-04-27T19:15:18.452Z,89.3751
2019-04-27T19:17:22.051Z,88.4092
2019-04-27T19:19:28.046Z,88.7388
2019-04-27T19:21:32.654Z,89.8085
2019-04-27T19:23:40.259Z,89.9687
2019-04-27T19:25:44.587Z,89.5445
2019-04-27T19:27:58.120Z,91.5892
2019-04-27T19:30:01.691Z,91.0368
2019-04-27T19:32:07.900Z,92.2209
2019-04-27T19:34:12.296Z,91.6121
2019-04-27T19:36:16.762Z,91.8654
2019-04-27T19:38:21.143Z,92.2484
2019-04-27T19:40:24.577Z,92.4788
2019-04-27T19:42:28.957Z,92.4544
2019-04-27T19:44:32.384Z,92.9030
2019-04-27T19:46:35.802Z,92.0333
2019-04-27T19:48:39.841Z,92.3506
2019-04-27T19:50:43.228Z,91.4977
2019-04-27T19:52:47.645Z,92.0836
2019-04-27T19:54:52.199Z,91.9692
2019-04-27T19:56:56.357Z,91.6991
2019-04-27T19:59:00.504Z,91.9753
2019-04-27T20:01:12.031Z,93.3989
2019-04-27T20:03:13.123Z,92.7764
2019-04-27T20:05:18.648Z,93.3928
2019-04-27T20:07:22.266Z,93.0694
2019-04-27T20:09:26.609Z,94.0490
2019-04-27T20:11:30.946Z,94.1527
2019-04-27T20:13:35.607Z,95.0042
2019-04-27T20:15:40.643Z,95.2392
2019-04-27T20:17:46.918Z,94.7662
2019-04-27T20:19:51.578Z,94.6944
2019-04-27T20:21:55.804Z,93.9605
2019-04-27T20:23:59.259Z,94.4549
2019-04-27T20:26:03.223Z,92.8389
2019-04-27T20:28:06.943Z,94.5556
2019-04-27T20:30:11.273Z,95.8801
2019-04-27T20:32:14.451Z,96.2173
2019-04-27T20:34:17.913Z,96.4111
2019-04-27T20:36:21.767Z,94.9187
2019-04-27T20:38:25.845Z,94.8257
2019-04-27T20:40:29.302Z,94.3099
2019-04-27T20:42:32.752Z,95.4528
2019-04-27T20:44:35.854Z,95.0957
2019-04-27T20:46:41.370Z,95.6359
2019-04-27T20:48:46.116Z,95.9991
2019-04-27T20:50:51.307Z,95.0240
2019-04-27T20:52:57.863Z,94.1985
2019-04-27T20:55:01.948Z,95.6832
2019-04-27T20:57:05.410Z,95.5642
2019-04-27T20:59:10.819Z,94.7112
2019-04-27T21:01:14.982Z,94.7494
2019-04-27T21:03:18.419Z,94.5464
2019-04-27T21:05:21.821Z,94.1527
2019-04-27T21:07:26.209Z,94.0536
2019-04-27T21:09:29.672Z,94.4961
2019-04-27T21:11:33.739Z,93.5485
2019-04-27T21:13:38.175Z,94.1268
2019-04-27T21:15:42.217Z,91.3008
2019-04-27T21:17:45.740Z,93.7423
2019-04-27T21:19:49.167Z,94.8257
2019-04-27T21:21:53.604Z,94.9996
2019-04-27T21:23:57.027Z,94.6471
2019-04-27T21:26:02.122Z,94.1131
2019-04-27T21:28:15.322Z,94.9233
2019-04-27T21:30:15.598Z,94.7997
2019-04-27T21:32:19.858Z,95.1064
2019-04-27T21:34:23.972Z,95.1003
2019-04-27T21:36:27.668Z,94.4640
2019-04-27T21:38:32.198Z,95.0332
2019-04-27T21:40:36.450Z,94.7997
2019-04-27T21:42:41.229Z,94.4701
2019-04-27T21:44:45.482Z,94.8302
2019-04-27T21:46:48.883Z,94.5693
2019-04-27T21:48:53.235Z,94.7082
2019-04-27T21:50:57.516Z,94.4411
2019-04-27T21:53:02.500Z,92.7703
2019-04-27T21:55:07.265Z,93.9330
2019-04-27T21:57:12.798Z,90.9483
2019-04-27T21:59:16.996Z,91.3252
2019-04-27T22:01:21.600Z,92.7749
2019-04-27T22:03:25.327Z,92.7153
2019-04-27T22:05:31.379Z,93.2235
2019-04-27T22:07:37.502Z,93.1960
2019-04-27T22:09:43.273Z,93.2601
2019-04-27T22:11:47.762Z,93.0053
2019-04-27T22:13:51.961Z,93.1884
2019-04-27T22:15:56.276Z,93.3791
2019-04-27T22:18:00.677Z,91.9051
2019-04-27T22:20:06.641Z,91.7357
2019-04-27T22:22:12.587Z,90.3731
2019-04-27T22:24:16.863Z,89.9184
2019-04-27T22:26:21.412Z,88.1880
2019-04-27T22:28:25.547Z,88.2994
2019-04-27T22:30:29.128Z,89.1768
2019-04-27T22:32:33.453Z,90.0847
2019-04-27T22:34:37.790Z,86.1189
2019-04-27T22:36:41.928Z,85.2918
2019-04-27T22:38:46.146Z,87.2465
2019-04-27T22:40:50.875Z,87.0207
2019-04-27T22:42:55.446Z,87.5257
2019-04-27T22:45:01.251Z,87.3610
2019-04-27T22:47:04.834Z,87.0909
2019-04-27T22:49:08.249Z,86.4897
2019-04-27T22:51:12.217Z,87.9362
2019-04-27T22:53:16.433Z,87.6799
2019-04-27T22:55:21.978Z,88.1529
2019-04-27T22:57:26.239Z,86.2882
2019-04-27T22:59:31.651Z,88.7648
2019-04-27T23:01:35.831Z,88.6549
2019-04-27T23:03:41.436Z,87.2007
2019-04-27T23:05:45.530Z,88.4779
2019-04-27T23:07:51.253Z,87.8370
2019-04-27T23:09:55.200Z,87.2145
2019-04-27T23:11:59.556Z,88.4764
2019-04-27T23:14:02.974Z,89.3919
2019-04-27T23:16:07.009Z,87.4113
2019-04-27T23:18:11.366Z,89.4621
2019-04-27T23:20:15.385Z,89.6208
2019-04-27T23:22:21.283Z,89.9733
2019-04-27T23:24:25.512Z,88.0064
2019-04-27T23:26:28.499Z,87.9973
2019-04-27T23:28:31.888Z,87.8218
2019-04-27T23:30:35.476Z,87.5242
2019-04-27T23:32:41.250Z,87.6402
2019-04-27T23:34:45.434Z,85.3101
2019-04-27T23:36:49.461Z,85.9831
2019-04-27T23:38:53.828Z,86.5904
2019-04-27T23:40:57.261Z,87.0665
2019-04-27T23:43:01.686Z,86.6545
2019-04-27T23:45:06.053Z,88.2704
2019-04-27T23:47:09.472Z,87.6677
2019-04-27T23:49:12.967Z,88.4260
2019-04-27T23:51:16.968Z,89.4484
2019-04-27T23:53:21.877Z,89.5445
2019-04-27T23:55:26.524Z,88.6152
2019-04-27T23:57:31.661Z,88.9357
2019-04-27T23:59:35.725Z,88.3635
